createdAt,value
2023-03-30T00:00:02.178Z,3.03
2023-03-30T00:01:17.280Z,1.98
2023-03-30T00:02:23.300Z,2.58
2023-03-30T00:03:29.753Z,2.03
2023-03-30T00:04:34.997Z,2.35
2023-03-30T00:05:41.495Z,1.80
2023-03-30T00:06:48.462Z,1.80
2023-03-30T00:07:52.996Z,2.53
2023-03-30T00:09:00.019Z,3.92
2023-03-30T00:10:05.749Z,2.95
2023-03-30T00:11:15.905Z,2.53
2023-03-30T00:12:22.024Z,2.42
2023-03-30T00:13:27.133Z,2.95
2023-03-30T00:14:32.508Z,2.60
2023-03-30T00:15:37.854Z,2.55
2023-03-30T00:16:42.820Z,2.72
2023-03-30T00:17:48.054Z,3.08
2023-03-30T00:18:52.408Z,3.00
2023-03-30T00:19:57.465Z,1.90
2023-03-30T00:21:04.717Z,2.58
2023-03-30T00:22:11.683Z,2.47
2023-03-30T00:23:15.734Z,2.15
2023-03-30T00:24:18.644Z,2.60
2023-03-30T00:25:24.517Z,2.67
2023-03-30T00:26:28.501Z,3.00
2023-03-30T00:27:31.578Z,3.55
2023-03-30T00:28:36.891Z,2.90
2023-03-30T00:29:40.824Z,2.78
2023-03-30T00:30:45.830Z,2.70
2023-03-30T00:31:54.753Z,2.45
2023-03-30T00:32:58.785Z,2.40
2023-03-30T00:34:03.588Z,3.28
2023-03-30T00:35:07.930Z,2.80
2023-03-30T00:36:12.837Z,3.38
2023-03-30T00:37:15.929Z,3.40
2023-03-30T00:38:18.830Z,3.20
2023-03-30T00:39:24.973Z,2.92
2023-03-30T00:40:30.465Z,2.08
2023-03-30T00:41:39.474Z,5.28
2023-03-30T00:42:42.936Z,2.85
2023-03-30T00:44:02.282Z,3.03
2023-03-30T00:45:19.936Z,2.10
2023-03-30T00:46:25.739Z,2.28
2023-03-30T00:47:31.512Z,2.63
2023-03-30T00:48:37.392Z,3.08
2023-03-30T00:49:43.337Z,3.47
2023-03-30T00:50:57.324Z,3.65
2023-03-30T00:52:02.858Z,2.22
2023-03-30T00:53:17.549Z,3.35
2023-03-30T00:54:23.493Z,2.55
2023-03-30T00:55:29.852Z,1.90
2023-03-30T00:56:34.405Z,1.77
2023-03-30T00:57:43.651Z,2.28
2023-03-30T00:58:48.296Z,2.03
2023-03-30T00:59:52.595Z,2.10
2023-03-30T01:00:58.763Z,3.25
2023-03-30T01:02:03.494Z,3.00
2023-03-30T01:03:17.369Z,2.05
2023-03-30T01:04:22.852Z,2.00
2023-03-30T01:05:30.453Z,2.03
2023-03-30T01:06:37.771Z,2.63
2023-03-30T01:07:42.439Z,3.25
2023-03-30T01:08:45.847Z,2.38
2023-03-30T01:09:50.003Z,1.83
2023-03-30T01:10:54.838Z,2.65
2023-03-30T01:11:59.263Z,2.67
2023-03-30T01:13:03.602Z,2.90
2023-03-30T01:14:10.345Z,2.55
2023-03-30T01:15:14.847Z,2.38
2023-03-30T01:16:43.036Z,2.53
2023-03-30T01:17:53.527Z,2.55
2023-03-30T01:19:05.076Z,2.70
2023-03-30T01:20:39.208Z,1.88
2023-03-30T01:22:08.830Z,2.70
2023-03-30T01:23:27.763Z,2.83
2023-03-30T01:25:09.154Z,1.40
2023-03-30T01:26:33.293Z,2.38
2023-03-30T01:28:16.629Z,1.98
2023-03-30T01:29:45.972Z,2.72
2023-03-30T01:31:35.616Z,2.88
2023-03-30T01:33:04.714Z,1.98
2023-03-30T01:35:47.044Z,2.55
2023-03-30T01:37:08.995Z,1.77
2023-03-30T01:38:36.452Z,3.38
2023-03-30T01:39:58.439Z,2.72
2023-03-30T01:41:08.139Z,1.42
2023-03-30T01:42:32.043Z,3.53
2023-03-30T01:43:43.618Z,2.38
2023-03-30T01:45:22.901Z,2.20
2023-03-30T01:46:35.543Z,1.80
2023-03-30T01:48:10.122Z,2.58
2023-03-30T01:49:18.510Z,2.53
2023-03-30T01:50:39.941Z,1.65
2023-03-30T01:51:51.198Z,2.28
2023-03-30T01:53:16.224Z,2.80
2023-03-30T01:55:37.535Z,2.63
2023-03-30T01:56:50.095Z,2.90
2023-03-30T01:58:06.176Z,2.60
2023-03-30T01:59:16.152Z,2.80
2023-03-30T02:00:24.504Z,2.28
2023-03-30T02:01:32.160Z,3.33
2023-03-30T02:02:37.794Z,1.63
2023-03-30T02:03:49.151Z,2.05
2023-03-30T02:05:00.140Z,3.00
2023-03-30T02:06:13.220Z,2.65
2023-03-30T02:07:25.532Z,2.60
2023-03-30T02:08:34.971Z,2.35
2023-03-30T02:09:41.918Z,2.92
2023-03-30T02:10:46.596Z,2.42
2023-03-30T02:11:55.662Z,2.35
2023-03-30T02:13:01.889Z,2.22
2023-03-30T02:14:08.064Z,2.85
2023-03-30T02:15:16.968Z,2.40
2023-03-30T02:16:37.814Z,2.67
2023-03-30T02:17:42.602Z,2.67
2023-03-30T02:18:48.051Z,1.83
2023-03-30T02:19:56.332Z,2.50
2023-03-30T02:21:00.724Z,3.25
2023-03-30T02:22:08.890Z,1.88
2023-03-30T02:23:13.414Z,2.50
2023-03-30T02:24:22.565Z,2.90
2023-03-30T02:25:26.918Z,2.13
2023-03-30T02:26:32.879Z,1.65
2023-03-30T02:27:38.250Z,2.55
2023-03-30T02:28:43.825Z,1.60
2023-03-30T02:29:48.263Z,1.83
2023-03-30T02:30:52.497Z,2.92
2023-03-30T02:31:59.775Z,2.40
2023-03-30T02:33:04.846Z,3.10
2023-03-30T02:34:16.818Z,1.67
2023-03-30T02:36:02.876Z,2.60
2023-03-30T02:37:27.098Z,3.50
2023-03-30T02:38:54.451Z,1.83
2023-03-30T02:40:27.998Z,1.65
2023-03-30T02:42:03.479Z,2.05
2023-03-30T02:43:30.766Z,2.17
2023-03-30T02:45:02.105Z,2.50
2023-03-30T02:47:33.379Z,2.10
2023-03-30T02:48:53.135Z,1.40
2023-03-30T02:50:20.513Z,2.22
2023-03-30T02:51:46.764Z,2.22
2023-03-30T02:53:01.234Z,2.42
2023-03-30T02:54:27.981Z,2.35
2023-03-30T02:56:05.592Z,2.15
2023-03-30T02:57:48.461Z,1.80
2023-03-30T02:59:35.644Z,2.20
2023-03-30T03:00:53.630Z,2.55
2023-03-30T03:02:15.623Z,2.35
2023-03-30T03:03:27.529Z,2.75
2023-03-30T03:04:38.711Z,1.85
2023-03-30T03:05:58.571Z,1.70
2023-03-30T03:07:08.079Z,2.17
2023-03-30T03:08:17.366Z,1.92
2023-03-30T03:09:25.281Z,1.52
2023-03-30T03:10:34.391Z,1.70
2023-03-30T03:11:41.655Z,1.92
2023-03-30T03:12:47.586Z,2.28
2023-03-30T03:13:52.782Z,1.77
2023-03-30T03:14:56.710Z,2.15
2023-03-30T03:16:04.403Z,1.70
2023-03-30T03:17:10.653Z,2.47
2023-03-30T03:18:21.631Z,2.20
2023-03-30T03:19:26.653Z,2.33
2023-03-30T03:20:32.561Z,1.88
2023-03-30T03:22:42.812Z,1.20
2023-03-30T03:23:50.815Z,2.38
2023-03-30T03:25:04.254Z,1.13
2023-03-30T03:26:31.414Z,2.35
2023-03-30T03:27:36.636Z,2.00
2023-03-30T03:28:50.832Z,1.38
2023-03-30T03:29:59.043Z,2.67
2023-03-30T03:31:05.051Z,1.92
2023-03-30T03:32:10.668Z,2.25
2023-03-30T03:33:22.046Z,2.40
2023-03-30T03:34:39.073Z,1.70
2023-03-30T03:35:46.057Z,2.15
2023-03-30T03:36:55.839Z,2.38
2023-03-30T03:38:08.214Z,2.08
2023-03-30T03:39:16.299Z,2.55
2023-03-30T03:40:21.017Z,1.88
2023-03-30T03:41:23.853Z,1.95
2023-03-30T03:42:29.370Z,2.70
2023-03-30T03:43:45.160Z,2.72
2023-03-30T03:44:50.950Z,2.72
2023-03-30T03:45:56.515Z,1.63
2023-03-30T03:47:01.852Z,1.52
2023-03-30T03:48:05.794Z,2.17
2023-03-30T03:49:24.355Z,2.05
2023-03-30T03:50:27.386Z,1.92
2023-03-30T03:51:36.366Z,1.42
2023-03-30T03:52:42.884Z,1.90
2023-03-30T03:53:49.135Z,1.20
2023-03-30T03:54:54.188Z,1.85
2023-03-30T03:55:58.253Z,1.63
2023-03-30T03:57:03.277Z,1.35
2023-03-30T03:58:08.710Z,3.20
2023-03-30T03:59:14.571Z,1.85
2023-03-30T04:00:19.185Z,1.75
2023-03-30T04:01:28.732Z,2.53
2023-03-30T04:02:32.768Z,1.77
2023-03-30T04:03:38.023Z,2.83
2023-03-30T04:04:42.327Z,1.15
2023-03-30T04:05:47.389Z,2.45
2023-03-30T04:06:52.131Z,2.38
2023-03-30T04:07:58.117Z,2.10
2023-03-30T04:09:04.421Z,1.75
2023-03-30T04:10:43.256Z,1.30
2023-03-30T04:12:16.644Z,2.22
2023-03-30T04:13:46.978Z,2.22
2023-03-30T04:15:11.062Z,1.83
2023-03-30T04:18:01.036Z,1.75
2023-03-30T04:19:27.378Z,1.15
2023-03-30T04:20:40.580Z,2.33
2023-03-30T04:22:08.733Z,1.77
2023-03-30T04:23:35.707Z,1.98
2023-03-30T04:24:58.411Z,1.48
2023-03-30T04:26:21.092Z,1.83
2023-03-30T04:27:37.943Z,1.30
2023-03-30T04:29:22.044Z,1.77
2023-03-30T04:30:47.557Z,1.10
2023-03-30T04:31:58.665Z,1.30
2023-03-30T04:33:30.186Z,1.45
2023-03-30T04:34:55.283Z,2.13
2023-03-30T04:36:21.790Z,1.67
2023-03-30T04:37:40.375Z,1.75
2023-03-30T04:39:01.927Z,1.75
2023-03-30T04:40:29.032Z,1.38
2023-03-30T04:41:46.374Z,1.63
2023-03-30T04:43:25.901Z,1.33
2023-03-30T04:44:54.855Z,2.17
2023-03-30T04:46:19.316Z,2.33
2023-03-30T04:47:46.924Z,1.25
2023-03-30T04:49:08.353Z,1.02
2023-03-30T04:50:24.741Z,1.20
2023-03-30T04:51:46.353Z,1.20
2023-03-30T04:53:01.680Z,1.48
2023-03-30T04:54:27.453Z,1.55
2023-03-30T04:55:32.266Z,1.58
2023-03-30T04:57:01.554Z,2.38
2023-03-30T04:58:20.380Z,2.63
2023-03-30T05:01:17.885Z,1.95
2023-03-30T05:02:39.639Z,1.83
2023-03-30T05:04:07.466Z,1.20
2023-03-30T05:05:30.325Z,1.02
2023-03-30T05:06:59.333Z,1.23
2023-03-30T05:08:02.727Z,1.65
2023-03-30T05:09:46.229Z,2.15
2023-03-30T05:11:03.128Z,2.03
2023-03-30T05:12:23.734Z,1.48
2023-03-30T05:13:41.889Z,1.38
2023-03-30T05:15:01.902Z,1.08
2023-03-30T05:16:19.707Z,1.63
2023-03-30T05:17:49.895Z,1.42
2023-03-30T05:19:13.587Z,1.67
2023-03-30T05:20:28.117Z,1.15
2023-03-30T05:21:51.861Z,2.13
2023-03-30T05:23:25.651Z,1.10
2023-03-30T05:24:55.178Z,1.35
2023-03-30T05:26:16.262Z,1.80
2023-03-30T05:27:47.204Z,2.45
2023-03-30T05:29:01.946Z,1.35
2023-03-30T05:30:17.830Z,3.05
2023-03-30T05:31:41.525Z,1.50
2023-03-30T05:33:10.700Z,1.60
2023-03-30T05:34:54.158Z,1.80
2023-03-30T05:36:19.207Z,1.25
2023-03-30T05:37:37.153Z,2.05
2023-03-30T05:38:59.110Z,2.38
2023-03-30T05:40:21.587Z,1.52
2023-03-30T05:41:57.922Z,2.22
2023-03-30T05:43:17.484Z,2.05
2023-03-30T05:44:28.927Z,1.52
2023-03-30T05:45:56.580Z,2.03
2023-03-30T05:47:24.889Z,1.48
2023-03-30T05:48:53.150Z,2.15
2023-03-30T05:50:19.497Z,1.38
2023-03-30T05:51:27.527Z,2.10
2023-03-30T05:52:53.225Z,1.80
2023-03-30T05:54:07.887Z,1.30
2023-03-30T05:55:21.133Z,1.10
2023-03-30T05:56:47.325Z,1.73
2023-03-30T05:57:57.802Z,1.15
2023-03-30T05:59:08.202Z,1.50
2023-03-30T06:00:25.125Z,2.30
2023-03-30T06:01:40.203Z,1.20
2023-03-30T06:02:45.710Z,1.92
2023-03-30T06:03:53.908Z,1.85
2023-03-30T06:04:58.867Z,1.48
2023-03-30T06:06:02.221Z,1.75
2023-03-30T06:07:08.155Z,0.77
2023-03-30T06:08:13.579Z,1.27
2023-03-30T06:09:20.010Z,1.73
2023-03-30T06:10:24.669Z,1.30
2023-03-30T06:11:28.901Z,1.98
2023-03-30T06:12:52.463Z,1.35
2023-03-30T06:14:15.045Z,3.17
2023-03-30T06:15:25.523Z,1.30
2023-03-30T06:16:36.462Z,0.80
2023-03-30T06:17:39.613Z,1.33
2023-03-30T06:18:44.181Z,2.30
2023-03-30T06:19:50.117Z,1.10
2023-03-30T06:20:53.381Z,1.45
2023-03-30T06:21:57.451Z,1.80
2023-03-30T06:23:14.405Z,1.92
2023-03-30T06:24:20.389Z,1.88
2023-03-30T06:25:24.860Z,1.70
2023-03-30T06:26:31.601Z,1.52
2023-03-30T06:27:37.544Z,1.25
2023-03-30T06:28:44.008Z,1.52
2023-03-30T06:29:47.181Z,1.40
2023-03-30T06:30:52.556Z,1.60
2023-03-30T06:32:00.683Z,1.65
2023-03-30T06:33:30.672Z,1.42
2023-03-30T06:34:37.518Z,0.70
2023-03-30T06:35:47.963Z,2.05
2023-03-30T06:36:54.164Z,2.33
2023-03-30T06:38:02.648Z,1.23
2023-03-30T06:39:06.675Z,2.05
2023-03-30T06:40:14.722Z,1.75
2023-03-30T06:41:22.443Z,1.40
2023-03-30T06:42:29.658Z,2.85
2023-03-30T06:43:58.631Z,1.13
2023-03-30T06:45:09.513Z,1.38
2023-03-30T06:46:17.296Z,1.13
2023-03-30T06:47:24.460Z,2.30
2023-03-30T06:48:28.811Z,1.30
2023-03-30T06:49:52.077Z,2.10
2023-03-30T06:51:04.633Z,1.70
2023-03-30T06:52:08.840Z,1.27
2023-03-30T06:53:13.690Z,1.42
2023-03-30T06:54:21.564Z,1.38
2023-03-30T06:55:35.051Z,2.22
2023-03-30T06:56:39.899Z,1.40
2023-03-30T06:57:50.251Z,1.45
2023-03-30T06:58:54.527Z,1.05
2023-03-30T06:59:59.792Z,1.30
2023-03-30T07:01:28.994Z,2.20
2023-03-30T07:03:04.500Z,1.45
2023-03-30T07:04:18.315Z,1.27
2023-03-30T07:05:52.623Z,1.05
2023-03-30T07:08:08.633Z,1.50
2023-03-30T07:09:14.757Z,1.98
2023-03-30T07:10:20.134Z,1.42
2023-03-30T07:11:24.712Z,1.40
2023-03-30T07:12:28.373Z,0.98
2023-03-30T07:13:31.463Z,1.77
2023-03-30T07:14:36.816Z,1.73
2023-03-30T07:15:39.881Z,1.73
2023-03-30T07:16:42.963Z,1.17
2023-03-30T07:17:46.592Z,1.38
2023-03-30T07:18:49.759Z,1.83
2023-03-30T07:19:55.304Z,1.30
2023-03-30T07:21:01.417Z,1.60
2023-03-30T07:22:07.579Z,1.63
2023-03-30T07:23:12.476Z,1.30
2023-03-30T07:24:16.318Z,1.70
2023-03-30T07:25:19.330Z,0.98
2023-03-30T07:26:23.723Z,1.77
2023-03-30T07:27:36.325Z,1.02
2023-03-30T07:28:42.383Z,2.20
2023-03-30T07:29:46.147Z,0.90
2023-03-30T07:30:49.461Z,1.25
2023-03-30T07:31:59.197Z,1.63
2023-03-30T07:33:03.176Z,1.33
2023-03-30T07:34:08.015Z,1.50
2023-03-30T07:35:17.723Z,2.70
2023-03-30T07:36:22.611Z,1.80
2023-03-30T07:37:25.722Z,2.53
2023-03-30T07:38:29.328Z,2.58
2023-03-30T07:39:33.951Z,1.50
2023-03-30T07:40:39.678Z,1.63
2023-03-30T07:41:43.955Z,1.52
2023-03-30T07:42:48.749Z,1.58
2023-03-30T07:43:52.275Z,1.58
2023-03-30T07:44:55.385Z,1.60
2023-03-30T07:45:59.413Z,1.85
2023-03-30T07:47:12.223Z,1.23
2023-03-30T07:48:15.888Z,1.00
2023-03-30T07:49:18.772Z,1.67
2023-03-30T07:50:24.188Z,1.40
2023-03-30T07:51:30.037Z,1.55
2023-03-30T07:53:05.666Z,2.00
2023-03-30T07:54:10.680Z,1.95
2023-03-30T07:55:36.255Z,1.92
2023-03-30T07:56:52.905Z,1.67
2023-03-30T07:57:57.980Z,2.13
2023-03-30T07:59:01.946Z,1.42
2023-03-30T08:00:14.362Z,1.55
2023-03-30T08:01:36.758Z,1.63
2023-03-30T08:03:12.366Z,1.77
2023-03-30T08:04:17.289Z,1.70
2023-03-30T08:05:20.448Z,2.47
2023-03-30T08:06:43.985Z,1.98
2023-03-30T08:07:46.871Z,1.30
2023-03-30T08:08:56.410Z,1.33
2023-03-30T08:10:00.059Z,1.77
2023-03-30T08:11:03.284Z,1.42
2023-03-30T08:12:08.063Z,1.98
2023-03-30T08:13:13.518Z,1.48
2023-03-30T08:14:18.831Z,1.60
2023-03-30T08:15:22.028Z,1.38
2023-03-30T08:16:25.164Z,1.50
2023-03-30T08:17:28.149Z,2.28
2023-03-30T08:18:31.880Z,1.08
2023-03-30T08:19:35.407Z,2.15
2023-03-30T08:20:39.771Z,1.75
2023-03-30T08:21:44.818Z,3.40
2023-03-30T08:22:48.277Z,1.50
2023-03-30T08:23:51.060Z,1.98
2023-03-30T08:24:54.902Z,1.02
2023-03-30T08:25:58.577Z,1.90
2023-03-30T08:27:02.030Z,1.45
2023-03-30T08:28:06.390Z,1.85
2023-03-30T08:29:10.482Z,1.98
2023-03-30T08:30:16.143Z,3.28
2023-03-30T08:31:21.315Z,1.42
2023-03-30T08:32:24.204Z,2.08
2023-03-30T08:33:27.008Z,1.67
2023-03-30T08:34:30.346Z,2.03
2023-03-30T08:35:33.158Z,1.58
2023-03-30T08:36:36.048Z,1.20
2023-03-30T08:37:39.485Z,1.25
2023-03-30T08:38:43.255Z,1.30
2023-03-30T08:39:46.380Z,1.40
2023-03-30T08:40:50.471Z,1.60
2023-03-30T08:42:28.214Z,1.70
2023-03-30T08:43:44.747Z,1.40
2023-03-30T08:44:52.026Z,1.10
2023-03-30T08:45:55.340Z,0.98
2023-03-30T08:47:00.623Z,1.15
2023-03-30T08:48:06.721Z,1.80
2023-03-30T08:49:17.484Z,2.08
2023-03-30T08:50:32.909Z,1.80
2023-03-30T08:51:38.410Z,1.70
2023-03-30T08:52:42.365Z,1.92
2023-03-30T08:53:45.621Z,1.98
2023-03-30T08:54:49.280Z,1.80
2023-03-30T08:55:59.103Z,2.00
2023-03-30T08:57:27.294Z,1.70
2023-03-30T08:58:30.354Z,1.45
2023-03-30T09:00:06.842Z,1.65
2023-03-30T09:01:19.253Z,2.83
2023-03-30T09:02:24.972Z,1.40
2023-03-30T09:03:53.788Z,1.50
2023-03-30T09:05:41.049Z,1.52
2023-03-30T09:06:55.893Z,1.70
2023-03-30T09:08:14.846Z,1.30
2023-03-30T09:09:23.693Z,1.35
2023-03-30T09:10:29.704Z,1.60
2023-03-30T09:11:36.131Z,1.83
2023-03-30T09:12:44.206Z,1.65
2023-03-30T09:13:49.187Z,1.42
2023-03-30T09:15:06.352Z,1.63
2023-03-30T09:16:35.680Z,1.50
2023-03-30T09:17:44.443Z,1.40
2023-03-30T09:18:55.534Z,1.55
2023-03-30T09:20:09.535Z,1.92
2023-03-30T09:21:14.683Z,1.38
2023-03-30T09:22:39.892Z,1.05
2023-03-30T09:23:43.486Z,1.77
2023-03-30T09:24:49.150Z,2.28
2023-03-30T09:26:22.970Z,2.42
2023-03-30T09:27:32.841Z,1.60
2023-03-30T09:29:00.286Z,1.52
2023-03-30T09:30:21.112Z,1.95
2023-03-30T09:31:41.671Z,1.20
2023-03-30T09:32:58.186Z,1.38
2023-03-30T09:34:08.947Z,1.98
2023-03-30T09:35:17.006Z,1.63
2023-03-30T09:36:27.539Z,1.80
2023-03-30T09:37:31.700Z,1.98
2023-03-30T09:38:38.462Z,1.83
2023-03-30T09:39:42.157Z,2.78
2023-03-30T09:41:11.659Z,3.03
2023-03-30T09:42:34.276Z,2.33
2023-03-30T09:43:46.688Z,2.10
2023-03-30T09:44:57.334Z,2.42
2023-03-30T09:46:05.324Z,2.40
2023-03-30T09:47:27.257Z,1.90
2023-03-30T09:48:39.013Z,2.95
2023-03-30T09:49:42.006Z,2.00
2023-03-30T09:50:46.477Z,1.88
2023-03-30T09:52:07.334Z,2.47
2023-03-30T09:53:25.368Z,2.47
2023-03-30T09:54:37.136Z,2.15
2023-03-30T09:55:40.157Z,1.73
2023-03-30T09:56:50.625Z,2.13
2023-03-30T09:57:54.922Z,2.03
2023-03-30T09:58:57.791Z,2.10
2023-03-30T10:00:01.809Z,1.52
2023-03-30T10:01:20.473Z,1.88
2023-03-30T10:02:25.794Z,3.20
2023-03-30T10:03:28.706Z,1.75
2023-03-30T10:04:31.793Z,2.42
2023-03-30T10:05:36.903Z,1.92
2023-03-30T10:06:49.901Z,1.77
2023-03-30T10:07:55.895Z,1.98
2023-03-30T10:08:58.870Z,1.73
2023-03-30T10:10:23.390Z,1.55
2023-03-30T10:11:40.607Z,1.95
2023-03-30T10:12:48.746Z,2.17
2023-03-30T10:13:52.080Z,1.40
2023-03-30T10:14:58.222Z,2.30
2023-03-30T10:16:12.839Z,1.88
2023-03-30T10:17:27.731Z,1.63
2023-03-30T10:18:53.172Z,2.08
2023-03-30T10:20:17.664Z,1.67
2023-03-30T10:21:27.623Z,1.38
2023-03-30T10:22:30.996Z,1.88
2023-03-30T10:23:40.295Z,2.22
2023-03-30T10:24:50.991Z,1.75
2023-03-30T10:26:03.974Z,2.28
2023-03-30T10:28:27.437Z,2.15
2023-03-30T10:29:31.339Z,2.03
2023-03-30T10:30:35.090Z,1.40
2023-03-30T10:31:40.164Z,1.52
2023-03-30T10:32:47.063Z,2.10
2023-03-30T10:33:50.230Z,2.40
2023-03-30T10:34:56.826Z,1.65
2023-03-30T10:36:01.390Z,1.50
2023-03-30T10:37:14.705Z,2.00
2023-03-30T10:39:30.013Z,2.08
2023-03-30T10:40:41.289Z,2.17
2023-03-30T10:41:45.360Z,1.40
2023-03-30T10:42:52.987Z,1.45
2023-03-30T10:43:55.962Z,2.03
2023-03-30T10:45:06.644Z,1.20
2023-03-30T10:46:20.796Z,2.08
2023-03-30T10:47:39.017Z,1.83
2023-03-30T10:48:53.563Z,2.20
2023-03-30T10:50:36.140Z,1.52
2023-03-30T10:51:57.521Z,1.20
2023-03-30T10:53:19.686Z,1.73
2023-03-30T10:54:34.947Z,1.95
2023-03-30T10:55:53.678Z,1.65
2023-03-30T10:57:18.122Z,1.17
2023-03-30T10:58:34.439Z,2.63
2023-03-30T10:59:52.256Z,1.25
2023-03-30T11:01:13.899Z,1.20
2023-03-30T11:02:38.082Z,2.90
2023-03-30T11:03:46.913Z,3.33
2023-03-30T11:05:32.415Z,3.20
2023-03-30T11:06:41.070Z,3.58
2023-03-30T11:07:56.588Z,5.18
2023-03-30T11:09:04.845Z,4.32
2023-03-30T11:10:17.349Z,5.35
2023-03-30T11:11:29.202Z,5.55
2023-03-30T11:12:39.613Z,4.80
2023-03-30T11:13:47.290Z,5.53
2023-03-30T11:14:57.349Z,5.15
2023-03-30T11:16:15.074Z,6.30
2023-03-30T11:17:26.216Z,5.45
2023-03-30T11:18:48.522Z,5.25
2023-03-30T11:19:57.459Z,4.85
2023-03-30T11:21:18.185Z,6.35
2023-03-30T11:22:43.291Z,5.72
2023-03-30T11:23:54.315Z,5.30
2023-03-30T11:24:59.759Z,4.95
2023-03-30T11:26:12.720Z,4.70
2023-03-30T11:27:31.047Z,4.43
2023-03-30T11:28:54.134Z,4.95
2023-03-30T11:30:18.311Z,4.88
2023-03-30T11:32:05.820Z,5.47
2023-03-30T11:33:50.795Z,3.83
2023-03-30T11:35:15.642Z,4.50
2023-03-30T11:36:28.381Z,4.15
2023-03-30T11:37:58.081Z,4.13
2023-03-30T11:39:18.467Z,3.70
2023-03-30T11:40:42.166Z,3.90
2023-03-30T11:42:01.244Z,3.80
2023-03-30T11:43:04.634Z,3.90
2023-03-30T11:44:12.144Z,3.88
2023-03-30T11:46:06.869Z,3.90
2023-03-30T11:47:28.732Z,3.38
2023-03-30T11:48:38.534Z,3.28
2023-03-30T11:49:57.631Z,3.50
2023-03-30T11:52:34.944Z,3.38
2023-03-30T11:54:05.202Z,2.95
2023-03-30T11:55:46.579Z,2.83
2023-03-30T11:57:04.361Z,2.50
2023-03-30T11:58:34.149Z,3.05
2023-03-30T12:00:09.879Z,2.53
2023-03-30T12:01:46.241Z,3.67
2023-03-30T12:03:20.962Z,2.83
2023-03-30T12:04:38.757Z,3.47
2023-03-30T12:05:48.973Z,3.30
2023-03-30T12:06:59.293Z,2.60
2023-03-30T12:08:37.286Z,3.35
2023-03-30T12:09:49.929Z,2.72
2023-03-30T12:11:01.541Z,3.00
2023-03-30T12:12:16.130Z,2.42
2023-03-30T12:13:21.777Z,2.30
2023-03-30T12:14:55.907Z,2.08
2023-03-30T12:16:13.837Z,2.28
2023-03-30T12:17:36.886Z,2.45
2023-03-30T12:18:58.875Z,2.63
2023-03-30T12:20:11.445Z,2.05
2023-03-30T12:21:33.821Z,2.05
2023-03-30T12:22:52.921Z,3.03
2023-03-30T12:24:16.058Z,2.05
2023-03-30T12:25:47.778Z,2.00
2023-03-30T12:27:04.568Z,2.13
2023-03-30T12:28:19.778Z,2.03
2023-03-30T12:29:58.563Z,2.47
2023-03-30T12:30:59.086Z,1.67
2023-03-30T12:32:07.591Z,2.53
2023-03-30T12:33:18.528Z,2.30
2023-03-30T12:34:23.103Z,1.67
2023-03-30T12:35:50.143Z,2.28
2023-03-30T12:37:18.684Z,3.05
2023-03-30T12:38:27.688Z,1.98
2023-03-30T12:39:49.384Z,2.65
2023-03-30T12:41:05.472Z,2.47
2023-03-30T12:42:26.886Z,1.80
2023-03-30T12:43:54.970Z,2.28
2023-03-30T12:45:16.681Z,1.58
2023-03-30T12:46:32.284Z,1.83
2023-03-30T12:47:44.320Z,1.83
2023-03-30T12:49:12.089Z,1.80
2023-03-30T12:50:24.108Z,2.15
2023-03-30T12:51:45.568Z,1.90
2023-03-30T12:52:57.795Z,2.13
2023-03-30T12:54:06.154Z,1.92
2023-03-30T12:55:33.228Z,1.92
2023-03-30T12:57:11.436Z,1.80
2023-03-30T12:58:44.039Z,1.55
2023-03-30T13:00:17.066Z,2.42
2023-03-30T13:01:33.072Z,2.35
2023-03-30T13:03:02.295Z,2.22
2023-03-30T13:04:17.341Z,1.38
2023-03-30T13:05:29.294Z,1.92
2023-03-30T13:06:48.906Z,1.98
2023-03-30T13:07:54.105Z,1.55
2023-03-30T13:09:24.106Z,2.40
2023-03-30T13:10:30.161Z,1.40
2023-03-30T13:12:06.590Z,1.30
2023-03-30T13:13:49.367Z,1.75
2023-03-30T13:15:02.724Z,1.50
2023-03-30T13:16:08.939Z,1.30
2023-03-30T13:17:16.577Z,1.35
2023-03-30T13:18:32.092Z,1.50
2023-03-30T13:19:37.445Z,1.40
2023-03-30T13:20:46.153Z,1.70
2023-03-30T13:22:03.574Z,1.60
2023-03-30T13:23:12.727Z,1.23
2023-03-30T13:24:28.700Z,1.02
2023-03-30T13:25:51.405Z,1.35
2023-03-30T13:26:54.808Z,1.42
2023-03-30T13:28:00.294Z,1.60
2023-03-30T13:29:16.052Z,1.08
2023-03-30T13:30:29.630Z,1.02
2023-03-30T13:31:38.009Z,1.00
2023-03-30T13:32:50.076Z,1.10
2023-03-30T13:34:14.376Z,1.17
2023-03-30T13:35:41.922Z,0.90
2023-03-30T13:37:08.082Z,1.33
2023-03-30T13:38:19.646Z,1.20
2023-03-30T13:39:45.663Z,1.15
2023-03-30T13:41:24.130Z,1.02
2023-03-30T13:42:46.157Z,1.67
2023-03-30T13:44:13.697Z,1.08
2023-03-30T13:45:35.314Z,1.58
2023-03-30T13:47:00.339Z,1.15
2023-03-30T13:48:34.010Z,1.45
2023-03-30T13:49:46.250Z,1.30
2023-03-30T13:50:55.755Z,1.30
2023-03-30T13:52:06.660Z,1.05
2023-03-30T13:53:11.317Z,1.40
2023-03-30T13:54:16.532Z,1.48
2023-03-30T13:55:35.039Z,1.00
2023-03-30T13:56:41.611Z,1.13
2023-03-30T13:57:44.919Z,1.40
2023-03-30T13:59:06.472Z,1.00
2023-03-30T14:00:39.989Z,2.10
2023-03-30T14:01:52.901Z,1.10
2023-03-30T14:02:55.863Z,1.20
2023-03-30T14:04:03.057Z,1.67
2023-03-30T14:05:16.630Z,1.15
2023-03-30T14:06:22.919Z,1.60
2023-03-30T14:07:25.920Z,1.67
2023-03-30T14:08:30.587Z,1.15
2023-03-30T14:09:34.038Z,1.30
2023-03-30T14:10:37.073Z,0.88
2023-03-30T14:11:45.077Z,2.22
2023-03-30T14:12:53.156Z,1.02
2023-03-30T14:13:56.041Z,1.60
2023-03-30T14:14:59.054Z,1.60
2023-03-30T14:16:03.705Z,1.42
2023-03-30T14:17:20.278Z,1.58
2023-03-30T14:18:25.356Z,1.50
2023-03-30T14:19:32.444Z,1.60
2023-03-30T14:20:42.877Z,1.20
2023-03-30T14:21:46.683Z,1.30
2023-03-30T14:22:51.527Z,1.20
2023-03-30T14:23:55.471Z,1.10
2023-03-30T14:25:02.946Z,1.10
2023-03-30T14:26:27.654Z,0.93
2023-03-30T14:27:38.680Z,1.50
2023-03-30T14:28:42.970Z,1.45
2023-03-30T14:29:48.708Z,1.58
2023-03-30T14:30:55.378Z,1.35
2023-03-30T14:32:08.078Z,1.00
2023-03-30T14:33:14.459Z,1.20
2023-03-30T14:34:26.779Z,1.10
2023-03-30T14:35:30.645Z,1.80
2023-03-30T14:36:33.586Z,1.58
2023-03-30T14:37:37.608Z,2.05
2023-03-30T14:38:43.815Z,1.30
2023-03-30T14:39:52.858Z,1.08
2023-03-30T14:40:56.224Z,1.25
2023-03-30T14:42:08.692Z,1.40
2023-03-30T14:43:19.426Z,1.27
2023-03-30T14:44:23.993Z,1.50
2023-03-30T14:45:27.637Z,2.30
2023-03-30T14:46:51.972Z,1.20
2023-03-30T14:47:56.628Z,1.38
2023-03-30T14:49:00.319Z,1.10
2023-03-30T14:50:06.840Z,1.63
2023-03-30T14:51:34.583Z,1.38
2023-03-30T14:52:46.856Z,1.30
2023-03-30T14:53:51.359Z,1.35
2023-03-30T14:55:05.978Z,1.25
2023-03-30T14:56:12.048Z,1.33
2023-03-30T14:57:17.696Z,1.30
2023-03-30T14:58:21.515Z,1.27
2023-03-30T14:59:26.124Z,1.25
2023-03-30T15:00:31.508Z,1.10
2023-03-30T15:01:34.960Z,1.67
2023-03-30T15:02:41.831Z,1.70
2023-03-30T15:03:45.397Z,1.45
2023-03-30T15:04:49.651Z,1.67
2023-03-30T15:05:52.614Z,1.52
2023-03-30T15:06:55.673Z,1.30
2023-03-30T15:07:58.706Z,1.50
2023-03-30T15:09:03.992Z,1.35
2023-03-30T15:10:07.217Z,1.63
2023-03-30T15:11:15.145Z,1.10
2023-03-30T15:12:26.769Z,1.30
2023-03-30T15:13:39.574Z,2.38
2023-03-30T15:14:42.745Z,2.63
2023-03-30T15:15:45.547Z,1.45
2023-03-30T15:16:55.551Z,1.00
2023-03-30T15:17:59.721Z,1.50
2023-03-30T15:19:07.068Z,1.83
2023-03-30T15:20:13.060Z,1.20
2023-03-30T15:21:16.677Z,1.30
2023-03-30T15:22:36.904Z,1.38
2023-03-30T15:23:45.091Z,1.20
2023-03-30T15:24:48.033Z,1.25
2023-03-30T15:25:52.088Z,1.10
2023-03-30T15:26:57.287Z,1.33
2023-03-30T15:28:07.280Z,1.20
2023-03-30T15:29:12.508Z,1.15
2023-03-30T15:30:36.912Z,1.33
2023-03-30T15:31:40.030Z,1.40
2023-03-30T15:32:44.149Z,1.40
2023-03-30T15:33:52.308Z,1.50
2023-03-30T15:35:23.423Z,1.52
2023-03-30T15:36:37.158Z,1.02
2023-03-30T15:37:52.041Z,1.10
2023-03-30T15:38:59.152Z,1.52
2023-03-30T15:40:02.404Z,1.25
2023-03-30T15:41:12.943Z,1.40
2023-03-30T15:42:27.994Z,1.10
2023-03-30T15:43:33.818Z,1.00
2023-03-30T15:44:38.805Z,2.17
2023-03-30T15:45:54.990Z,1.33
2023-03-30T15:47:02.457Z,1.42
2023-03-30T15:48:09.744Z,1.30
2023-03-30T15:49:19.821Z,1.88
2023-03-30T15:50:23.591Z,1.65
2023-03-30T15:51:38.145Z,1.98
2023-03-30T15:52:45.258Z,1.48
2023-03-30T15:54:04.664Z,1.38
2023-03-30T15:55:19.452Z,1.45
2023-03-30T15:56:41.992Z,1.48
2023-03-30T15:57:50.138Z,1.25
2023-03-30T15:58:53.403Z,1.75
2023-03-30T16:00:01.667Z,2.13
2023-03-30T16:01:12.516Z,1.35
2023-03-30T16:02:17.874Z,1.33
2023-03-30T16:03:40.780Z,1.52
2023-03-30T16:04:44.849Z,1.27
2023-03-30T16:05:47.792Z,1.40
2023-03-30T16:06:53.757Z,1.73
2023-03-30T16:07:58.744Z,1.50
2023-03-30T16:09:01.884Z,1.42
2023-03-30T16:10:05.294Z,1.75
2023-03-30T16:11:09.087Z,1.42
2023-03-30T16:12:15.734Z,2.05
2023-03-30T16:13:18.848Z,1.42
2023-03-30T16:14:21.960Z,1.85
2023-03-30T16:15:29.568Z,2.15
2023-03-30T16:16:32.742Z,1.77
2023-03-30T16:17:36.448Z,2.03
2023-03-30T16:18:42.592Z,1.40
2023-03-30T16:19:48.323Z,1.50
2023-03-30T16:20:51.390Z,1.67
2023-03-30T16:21:54.418Z,1.50